Guangzhou Baiyun International Airport
ZGGG : now visible

Airfield :











YOU CAN JOIN US ON...

 
LOGIN :

Register | Disclaimer

   EN    FR    IT 

 









Legend :    VFR   Marginal VFR   IFR   Intensive IFR   Very Intensive IFR
Visi :
Ceiling :
>= 8 km
>= 3000ft
5 to 8 km
1000 to 3000 ft
1500m to 5 km
500 to 1000 ft
800 to 1500m
200 to 500 ft
< 800m
< 200 ft
Symbols :   Thunderstorms  Fog  Heavy snow  Heavy precipitations  Wind > 20 kt






- Airport Elevation : 50 ft
- IATA code : CAN


ZGGG - Guangzhou Baiyun International

CURRENT METAR :
  • 040230Z VRB01MPS 9999 -TSRA SCT010 FEW023CB BKN033 26/25 Q1009 RESHRA BECMG AT0300 NSW

EXPIRED METARs :
  • 040200Z 08003MPS 050V120 8000 -TSRA SCT013 SCT023CB 26/24 Q1010 BECMG AT0230 NSW
  • 040130Z VRB01MPS 6000 -TSRA SCT013 SCT023CB 26/24 Q1009 RESHRA BECMG AT0150 6000 NSW
  • 040100Z 06002MPS 350V100 3000 TSRA SCT013 SCT023CB 29/25 Q1009 BECMG AT0110 19007G15MPS 2000 +TSRA SCT011 SCT026CB BKN040
  • 040030Z 05002MPS 010V080 9999 FEW023TCU SCT043 29/25 Q1009 BECMG AT0050 SHRA
  • 040000Z 06002MPS 030V090 9999 BKN043 27/25 Q1009 BECMG AT0020 3500 TSRA SCT010 SCT026CB BKN033

TAF AMD TAF ZGGG
Valid from the 04 at 00:00 until the 05 at 00:00 UTC


040122Z 0400/0424 16004MPS 8000 BKN040 TX33/0407Z TN26/0422Z
TEMPO 0400/0404 22008G17MPS 1000 +TSRA SCT011 SCT026CB BKN033
TEMPO 0404/0410 2000 TSRA SCT010 SCT026CB SCT033
ZGZU FIR / Asia



MET'MAP, your aeronautical weather chart ! - Copyright ORBIFLY December 2007 - Disclaimer

ORBIFLY MET'MAP TEAM :

Programming & Development : Alexandra Zaïnal
Concept & original design : Baudouin d'Aumeries
Assistance for programming : Marc-Olivier Méhu
Technical & hardware support : Manuel Goepfert

Contact : metmap@orbifly.com




SOURCES & CREDITS :

   NOAA       Earth
Advisory